Aeroporto :
LOGIN :

Iscrizione | Disclaimer

   EN    FR    IT 

 










Sommario :    VFR   VFR Marginale   IFR   IFR Intensivo   IFR Molto Intensivo
Visibilità : 
Base nubi : 
>= 8 km
>= 3000ft
5 / 8 km
1000 / 3000 ft
1500m / 5 km
500 / 1000 ft
800 / 1500m
200 / 500 ft
< 800m
< 200 ft
Simboli :   Temporali  Nebbia  Neve Forte  Precipitazioni Forti  Vento > 20 kt
SIGMETs :   Varie  Temporali  Ghiacco  Turbolenza  Onda orograficha  Ceneri Vulcaniche






- Altitudine del aeroporto : 919 ft
- Codice IATA : IFO


UKLI - Ivano Frankivs'k

ULTIMO METAR :
  • 140900Z 10003MPS 3700 -SHRA BKN007 BKN014CB 13/12 Q1013 R10/290065 NOSIG

METARs OBSOLETI :
  • 140830Z 11004MPS 4600 -SHRA BKN008 BKN014CB 13/12 Q1013 R10/290065 NOSIG
  • 140802Z 12003MPS 080V150 4800 -SHRA BKN008 BKN014CB 13/12 Q1013 R10/090070 NOSIG
  • 140730Z 10002MPS 040V150 7000 OVC008 13/12 Q1012 R10/090070 NOSIG
  • 140700Z 10003MPS 070V150 8000 OVC008 13/12 Q1012 R10/090070 NOSIG

TAF TAF UKLI
Valido dal 14 a 09 ore il 14 a 18 ore UTC


140810Z 1409/1418 12003MPS 3000 -SHRA BR BKN006 BKN015CB
TEMPO 1409/1415 16006MPS 1500 SHRA BKN003 BKN010CB



MetMap, La meteo Aeronautica in un colpo d'occhio ! - Copyright ORBIFLY Dicembre 2007 - Disclaimer

ORBIFLY MET'MAP TEAM :

Programmazione e sviluppo : Alexandra Zaïnal
Concezione e sviluppo : Baudouin d'Aumeries
Co-Programmazione e sviluppo : Marc-Olivier Méhu
Supporto tecnico e logistico : Manuel Goepfert
Aiuto per la traduzione : Arnaldo La Scala

Contatto : metmap@orbifly.com




FONTI E CREDITI :

   NOAA